sensor_id;sensor_type;location;lat;lon;timestamp;pressure;altitude;pressure_sealevel;temperature;humidity
45467;BME280;31212;49.734;8.490;2022-10-22T00:00:33;100187.00;;;15.21;94.20
45467;BME280;31212;49.734;8.490;2022-10-22T00:03:00;100184.50;;;15.15;94.67
45467;BME280;31212;49.734;8.490;2022-10-22T00:05:27;100182.72;;;15.16;94.88
45467;BME280;31212;49.734;8.490;2022-10-22T00:07:53;100182.72;;;15.16;94.90
45467;BME280;31212;49.734;8.490;2022-10-22T00:10:21;100173.13;;;15.18;94.67
45467;BME280;31212;49.734;8.490;2022-10-22T00:12:48;100184.47;;;15.17;94.56
45467;BME280;31212;49.734;8.490;2022-10-22T00:15:14;100179.28;;;15.15;94.55
45467;BME280;31212;49.734;8.490;2022-10-22T00:17:41;100189.69;;;15.17;94.87
45467;BME280;31212;49.734;8.490;2022-10-22T00:20:08;100186.19;;;15.18;94.46
45467;BME280;31212;49.734;8.490;2022-10-22T00:22:34;100166.16;;;15.17;94.59
45467;BME280;31212;49.734;8.490;2022-10-22T00:25:01;100166.22;;;15.13;94.68
45467;BME280;31212;49.734;8.490;2022-10-22T00:27:29;100160.16;;;15.13;94.25
45467;BME280;31212;49.734;8.490;2022-10-22T00:29:56;100157.75;;;15.01;94.67
45467;BME280;31212;49.734;8.490;2022-10-22T00:32:22;100162.16;;;14.99;94.79
45467;BME280;31212;49.734;8.490;2022-10-22T00:34:49;100166.69;;;14.90;94.57
45467;BME280;31212;49.734;8.490;2022-10-22T00:37:15;100170.28;;;14.85;94.77
45467;BME280;31212;49.734;8.490;2022-10-22T00:39:42;100182.59;;;14.78;95.54
45467;BME280;31212;49.734;8.490;2022-10-22T00:42:12;100194.84;;;14.74;95.29
45467;BME280;31212;49.734;8.490;2022-10-22T00:45:09;100187.06;;;14.71;95.40
45467;BME280;31212;49.734;8.490;2022-10-22T00:47:42;100192.25;;;14.73;95.89
45467;BME280;31212;49.734;8.490;2022-10-22T00:50:12;100188.75;;;14.74;95.51
45467;BME280;31212;49.734;8.490;2022-10-22T00:52:39;100177.38;;;14.78;94.99
45467;BME280;31212;49.734;8.490;2022-10-22T00:55:06;100170.34;;;14.80;94.52
45467;BME280;31212;49.734;8.490;2022-10-22T00:57:33;100171.09;;;14.87;93.56
45467;BME280;31212;49.734;8.490;2022-10-22T01:00:00;100174.66;;;14.83;92.59
45467;BME280;31212;49.734;8.490;2022-10-22T01:02:28;100169.44;;;14.83;92.63
45467;BME280;31212;49.734;8.490;2022-10-22T01:04:55;100170.28;;;14.83;92.09
45467;BME280;31212;49.734;8.490;2022-10-22T01:07:23;100171.22;;;14.80;91.94
45467;BME280;31212;49.734;8.490;2022-10-22T01:09:57;100159.84;;;14.82;91.76
45467;BME280;31212;49.734;8.490;2022-10-22T01:12:35;100151.97;;;14.85;91.04
45467;BME280;31212;49.734;8.490;2022-10-22T01:15:12;100147.69;;;14.80;90.68
45467;BME280;31212;49.734;8.490;2022-10-22T01:17:49;100146.72;;;14.86;89.84
45467;BME280;31212;49.734;8.490;2022-10-22T01:20:32;100145.03;;;14.84;89.33
45467;BME280;31212;49.734;8.490;2022-10-22T01:23:16;100139.75;;;14.85;89.06
45467;BME280;31212;49.734;8.490;2022-10-22T01:25:50;100133.69;;;14.85;88.48
45467;BME280;31212;49.734;8.490;2022-10-22T01:30:58;100135.56;;;14.76;88.33
45467;BME280;31212;49.734;8.490;2022-10-22T01:33:27;100138.16;;;14.76;88.10
45467;BME280;31212;49.734;8.490;2022-10-22T01:35:55;100147.72;;;14.77;88.29
45467;BME280;31212;49.734;8.490;2022-10-22T01:38:25;100136.41;;;14.78;87.94
45467;BME280;31212;49.734;8.490;2022-10-22T01:40:52;100145.09;;;14.79;87.86
45467;BME280;31212;49.734;8.490;2022-10-22T01:43:19;100147.72;;;14.77;88.12
45467;BME280;31212;49.734;8.490;2022-10-22T01:45:49;100148.66;;;14.75;88.35
45467;BME280;31212;49.734;8.490;2022-10-22T01:48:35;100146.84;;;14.78;88.17
45467;BME280;31212;49.734;8.490;2022-10-22T01:51:13;100135.66;;;14.72;88.11
45467;BME280;31212;49.734;8.490;2022-10-22T01:53:48;100145.31;;;14.67;88.45
45467;BME280;31212;49.734;8.490;2022-10-22T01:56:29;100150.59;;;14.62;88.87
45467;BME280;31212;49.734;8.490;2022-10-22T01:59:04;100154.09;;;14.61;89.07
45467;BME280;31212;49.734;8.490;2022-10-22T02:01:38;100162.81;;;14.60;89.01
45467;BME280;31212;49.734;8.490;2022-10-22T02:04:14;100162.00;;;14.58;89.30
45467;BME280;31212;49.734;8.490;2022-10-22T02:06:43;100170.75;;;14.55;89.31
45467;BME280;31212;49.734;8.490;2022-10-22T02:09:12;100172.47;;;14.55;89.41
45467;BME280;31212;49.734;8.490;2022-10-22T02:11:41;100175.97;;;14.55;89.45
45467;BME280;31212;49.734;8.490;2022-10-22T02:14:09;100169.06;;;14.51;89.89
45467;BME280;31212;49.734;8.490;2022-10-22T02:16:40;100183.09;;;14.47;89.86
45467;BME280;31212;49.734;8.490;2022-10-22T02:19:13;100184.69;;;14.54;89.93
45467;BME280;31212;49.734;8.490;2022-10-22T02:21:43;100186.47;;;14.52;90.22
45467;BME280;31212;49.734;8.490;2022-10-22T02:24:09;100183.00;;;14.52;90.21
45467;BME280;31212;49.734;8.490;2022-10-22T02:26:39;100185.59;;;14.52;90.12
45467;BME280;31212;49.734;8.490;2022-10-22T02:29:11;100179.59;;;14.46;90.19
45467;BME280;31212;49.734;8.490;2022-10-22T02:31:42;100185.69;;;14.47;90.40
45467;BME280;31212;49.734;8.490;2022-10-22T02:34:13;100172.59;;;14.49;90.61
45467;BME280;31212;49.734;8.490;2022-10-22T02:36:44;100172.47;;;14.56;90.56
45467;BME280;31212;49.734;8.490;2022-10-22T02:39:12;100156.75;;;14.59;90.38
45467;BME280;31212;49.734;8.490;2022-10-22T02:41:41;100148.97;;;14.56;89.64
45467;BME280;31212;49.734;8.490;2022-10-22T02:44:09;100143.94;;;14.45;90.24
45467;BME280;31212;49.734;8.490;2022-10-22T02:46:36;100155.28;;;14.41;90.41
45467;BME280;31212;49.734;8.490;2022-10-22T02:49:02;100154.38;;;14.44;90.77
45467;BME280;31212;49.734;8.490;2022-10-22T02:51:29;100162.31;;;14.39;91.34
45467;BME280;31212;49.734;8.490;2022-10-22T02:53:57;100167.56;;;14.38;91.42
45467;BME280;31212;49.734;8.490;2022-10-22T02:56:23;100169.25;;;14.40;91.56
45467;BME280;31212;49.734;8.490;2022-10-22T02:58:50;100173.56;;;14.43;91.65
45467;BME280;31212;49.734;8.490;2022-10-22T03:01:16;100177.13;;;14.39;91.48
45467;BME280;31212;49.734;8.490;2022-10-22T03:03:43;100177.09;;;14.40;91.94
45467;BME280;31212;49.734;8.490;2022-10-22T03:06:10;100180.56;;;14.41;91.75
45467;BME280;31212;49.734;8.490;2022-10-22T03:08:36;100182.28;;;14.42;92.01
45467;BME280;31212;49.734;8.490;2022-10-22T03:11:04;100166.69;;;14.39;91.91
45467;BME280;31212;49.734;8.490;2022-10-22T03:13:31;100168.38;;;14.40;91.99
45467;BME280;31212;49.734;8.490;2022-10-22T03:15:58;100175.34;;;14.41;92.28
45467;BME280;31212;49.734;8.490;2022-10-22T03:18:24;100173.63;;;14.38;92.10
45467;BME280;31212;49.734;8.490;2022-10-22T03:20:59;100182.34;;;14.39;92.52
45467;BME280;31212;49.734;8.490;2022-10-22T03:23:27;100188.38;;;14.42;92.42
45467;BME280;31212;49.734;8.490;2022-10-22T03:25:53;100190.13;;;14.42;92.59
45467;BME280;31212;49.734;8.490;2022-10-22T03:28:23;100193.69;;;14.36;92.61
45467;BME280;31212;49.734;8.490;2022-10-22T03:30:51;100199.00;;;14.30;92.63
45467;BME280;31212;49.734;8.490;2022-10-22T03:33:17;100211.22;;;14.29;93.22
45467;BME280;31212;49.734;8.490;2022-10-22T03:35:45;100219.16;;;14.22;93.12
45467;BME280;31212;49.734;8.490;2022-10-22T03:38:12;100227.72;;;14.30;93.30
45467;BME280;31212;49.734;8.490;2022-10-22T03:40:40;100241.66;;;14.32;93.53
45467;BME280;31212;49.734;8.490;2022-10-22T03:43:07;100241.66;;;14.32;93.68
45467;BME280;31212;49.734;8.490;2022-10-22T03:45:35;100239.03;;;14.32;93.54
45467;BME280;31212;49.734;8.490;2022-10-22T03:48:02;100245.97;;;14.33;93.32
45467;BME280;31212;49.734;8.490;2022-10-22T03:50:29;100252.09;;;14.30;93.46
45467;BME280;31212;49.734;8.490;2022-10-22T03:52:55;100254.72;;;14.29;93.80
45467;BME280;31212;49.734;8.490;2022-10-22T03:55:22;100249.53;;;14.27;93.54
45467;BME280;31212;49.734;8.490;2022-10-22T03:57:49;100249.59;;;14.24;93.78
45467;BME280;31212;49.734;8.490;2022-10-22T04:00:15;100241.75;;;14.24;93.60
45467;BME280;31212;49.734;8.490;2022-10-22T04:02:43;100267.03;;;14.21;94.11
45467;BME280;31212;49.734;8.490;2022-10-22T04:05:10;100288.75;;;14.24;93.87
45467;BME280;31212;49.734;8.490;2022-10-22T04:07:37;100291.28;;;14.29;94.23
45467;BME280;31212;49.734;8.490;2022-10-22T04:10:04;100292.19;;;14.26;94.21
45467;BME280;31212;49.734;8.490;2022-10-22T04:12:31;100300.03;;;14.28;94.13
45467;BME280;31212;49.734;8.490;2022-10-22T04:14:57;100299.25;;;14.20;94.30
45467;BME280;31212;49.734;8.490;2022-10-22T04:17:24;100307.09;;;14.18;94.17
45467;BME280;31212;49.734;8.490;2022-10-22T04:19:52;100312.41;;;14.12;94.00
45467;BME280;31212;49.734;8.490;2022-10-22T04:22:18;100310.00;;;13.95;94.17
45467;BME280;31212;49.734;8.490;2022-10-22T04:24:45;100318.78;;;13.89;94.58
45467;BME280;31212;49.734;8.490;2022-10-22T04:27:12;100316.28;;;13.80;94.68
45467;BME280;31212;49.734;8.490;2022-10-22T04:29:38;100325.88;;;13.76;95.07
45467;BME280;31212;49.734;8.490;2022-10-22T04:32:05;100320.75;;;13.70;95.25
45467;BME280;31212;49.734;8.490;2022-10-22T04:34:31;100321.78;;;13.55;95.82
45467;BME280;31212;49.734;8.490;2022-10-22T04:36:59;100331.38;;;13.50;95.99
45467;BME280;31212;49.734;8.490;2022-10-22T04:39:25;100335.00;;;13.37;96.21
45467;BME280;31212;49.734;8.490;2022-10-22T04:41:52;100335.88;;;13.33;96.60
45467;BME280;31212;49.734;8.490;2022-10-22T04:44:19;100346.31;;;13.31;97.05
45467;BME280;31212;49.734;8.490;2022-10-22T04:46:45;100344.63;;;13.24;97.25
45467;BME280;31212;49.734;8.490;2022-10-22T04:49:12;100345.53;;;13.20;97.29
45467;BME280;31212;49.734;8.490;2022-10-22T04:51:38;100354.28;;;13.14;97.48
45467;BME280;31212;49.734;8.490;2022-10-22T04:54:06;100358.72;;;13.04;97.73
45467;BME280;31212;49.734;8.490;2022-10-22T04:56:33;100367.41;;;13.02;97.91
45467;BME280;31212;49.734;8.490;2022-10-22T04:59:03;100363.16;;;12.90;97.83
45467;BME280;31212;49.734;8.490;2022-10-22T05:01:33;100364.03;;;12.87;97.72
45467;BME280;31212;49.734;8.490;2022-10-22T05:04:13;100368.34;;;12.91;98.10
45467;BME280;31212;49.734;8.490;2022-10-22T05:06:43;100376.09;;;13.02;98.50
45467;BME280;31212;49.734;8.490;2022-10-22T05:09:13;100374.31;;;13.10;98.56
45467;BME280;31212;49.734;8.490;2022-10-22T05:11:49;100384.66;;;13.18;98.86
45467;BME280;31212;49.734;8.490;2022-10-22T05:14:20;100386.34;;;13.24;98.93
45467;BME280;31212;49.734;8.490;2022-10-22T05:16:50;100373.28;;;13.28;98.90
45467;BME280;31212;49.734;8.490;2022-10-22T05:19:27;100377.56;;;13.37;98.83
45467;BME280;31212;49.734;8.490;2022-10-22T05:22:03;100383.59;;;13.44;98.98
45467;BME280;31212;49.734;8.490;2022-10-22T05:24:37;100383.56;;;13.50;98.68
45467;BME280;31212;49.734;8.490;2022-10-22T05:27:13;100382.59;;;13.59;98.24
45467;BME280;31212;49.734;8.490;2022-10-22T05:29:45;100377.38;;;13.57;97.87
45467;BME280;31212;49.734;8.490;2022-10-22T05:32:23;100386.09;;;13.55;97.30
45467;BME280;31212;49.734;8.490;2022-10-22T05:34:56;100377.50;;;13.45;97.07
45467;BME280;31212;49.734;8.490;2022-10-22T05:37:27;100374.06;;;13.41;96.96
45467;BME280;31212;49.734;8.490;2022-10-22T05:40:00;100378.44;;;13.39;96.97
45467;BME280;31212;49.734;8.490;2022-10-22T05:42:30;100385.41;;;13.33;96.92
45467;BME280;31212;49.734;8.490;2022-10-22T05:44:57;100391.56;;;13.25;96.94
45467;BME280;31212;49.734;8.490;2022-10-22T05:47:23;100395.03;;;13.26;96.56
45467;BME280;31212;49.734;8.490;2022-10-22T05:49:51;100396.88;;;13.11;96.92
45467;BME280;31212;49.734;8.490;2022-10-22T05:52:17;100406.47;;;13.09;97.42
45467;BME280;31212;49.734;8.490;2022-10-22T05:54:44;100407.34;;;13.07;97.61
45467;BME280;31212;49.734;8.490;2022-10-22T05:57:11;100414.28;;;13.05;97.54
45467;BME280;31212;49.734;8.490;2022-10-22T05:59:38;100416.06;;;12.98;97.54
45467;BME280;31212;49.734;8.490;2022-10-22T06:02:05;100416.97;;;12.92;97.76
45467;BME280;31212;49.734;8.490;2022-10-22T06:04:31;100424.84;;;12.88;97.51
45467;BME280;31212;49.734;8.490;2022-10-22T06:06:58;100426.63;;;12.81;97.71
45467;BME280;31212;49.734;8.490;2022-10-22T06:09:26;100430.06;;;12.88;97.74
45467;BME280;31212;49.734;8.490;2022-10-22T06:11:55;100431.75;;;12.93;97.56
45467;BME280;31212;49.734;8.490;2022-10-22T06:14:23;100433.50;;;12.94;97.97
45467;BME280;31212;49.734;8.490;2022-10-22T06:16:50;100442.13;;;13.03;98.20
45467;BME280;31212;49.734;8.490;2022-10-22T06:19:19;100444.72;;;13.04;97.89
45467;BME280;31212;49.734;8.490;2022-10-22T06:21:46;100450.78;;;13.05;97.85
45467;BME280;31212;49.734;8.490;2022-10-22T06:24:14;100443.03;;;12.97;97.66
45467;BME280;31212;49.734;8.490;2022-10-22T06:26:41;100458.63;;;13.02;97.41
45467;BME280;31212;49.734;8.490;2022-10-22T06:29:08;100457.00;;;12.85;97.91
45467;BME280;31212;49.734;8.490;2022-10-22T06:31:36;100467.44;;;12.82;97.94
45467;BME280;31212;49.734;8.490;2022-10-22T06:34:03;100470.03;;;12.81;98.29
45467;BME280;31212;49.734;8.490;2022-10-22T06:36:30;100477.84;;;12.81;98.12
45467;BME280;31212;49.734;8.490;2022-10-22T06:38:57;100484.78;;;12.82;98.31
45467;BME280;31212;49.734;8.490;2022-10-22T06:41:24;100484.81;;;12.78;98.44
45467;BME280;31212;49.734;8.490;2022-10-22T06:43:52;100481.34;;;12.75;98.55
45467;BME280;31212;49.734;8.490;2022-10-22T06:46:20;100489.94;;;12.92;98.47
45467;BME280;31212;49.734;8.490;2022-10-22T06:48:50;100493.44;;;12.94;97.91
45467;BME280;31212;49.734;8.490;2022-10-22T06:51:18;100496.03;;;12.93;98.02
45467;BME280;31212;49.734;8.490;2022-10-22T06:53:48;100492.53;;;12.97;97.90
45467;BME280;31212;49.734;8.490;2022-10-22T06:56:20;100491.66;;;12.98;97.54
45467;BME280;31212;49.734;8.490;2022-10-22T06:58:55;100502.06;;;12.96;97.23
45467;BME280;31212;49.734;8.490;2022-10-22T07:01:24;100505.56;;;12.99;96.77
45467;BME280;31212;49.734;8.490;2022-10-22T07:03:54;100507.28;;;12.98;96.96
45467;BME280;31212;49.734;8.490;2022-10-22T07:06:22;100508.13;;;13.05;96.84
45467;BME280;31212;49.734;8.490;2022-10-22T07:08:50;100514.16;;;13.16;97.02
45467;BME280;31212;49.734;8.490;2022-10-22T07:11:20;100514.94;;;13.26;97.02
45467;BME280;31212;49.734;8.490;2022-10-22T07:13:49;100522.69;;;13.41;96.79
45467;BME280;31212;49.734;8.490;2022-10-22T07:16:17;100520.88;;;13.56;96.58
45467;BME280;31212;49.734;8.490;2022-10-22T07:18:46;100519.94;;;13.65;96.22
45467;BME280;31212;49.734;8.490;2022-10-22T07:21:18;100524.22;;;13.73;95.71
45467;BME280;31212;49.734;8.490;2022-10-22T07:23:50;100526.75;;;13.81;95.61
45467;BME280;31212;49.734;8.490;2022-10-22T07:26:20;100533.63;;;13.94;94.92
45467;BME280;31212;49.734;8.490;2022-10-22T07:28:50;100529.75;;;14.33;93.59
45467;BME280;31212;49.734;8.490;2022-10-22T07:31:17;100519.47;;;14.95;92.22
45467;BME280;31212;49.734;8.490;2022-10-22T07:33:44;100489.00;;;15.52;89.33
45467;BME280;31212;49.734;8.490;2022-10-22T07:36:13;100445.28;;;16.11;86.47
45467;BME280;31212;49.734;8.490;2022-10-22T07:38:43;100382.72;;;16.79;82.87
45467;BME280;31212;49.734;8.490;2022-10-22T07:41:10;100315.22;;;17.56;79.67
45467;BME280;31212;49.734;8.490;2022-10-22T07:43:37;100219.75;;;18.19;76.01
45467;BME280;31212;49.734;8.490;2022-10-22T07:46:03;100170.41;;;18.80;73.46
45467;BME280;31212;49.734;8.490;2022-10-22T07:48:32;100087.72;;;19.59;70.03
45467;BME280;31212;49.734;8.490;2022-10-22T07:50:59;100053.22;;;20.09;67.97
45467;BME280;31212;49.734;8.490;2022-10-22T07:53:25;99999.00;;;20.45;65.58
45467;BME280;31212;49.734;8.490;2022-10-22T07:55:53;99963.31;;;21.14;63.30
45467;BME280;31212;49.734;8.490;2022-10-22T07:58:21;99953.97;;;21.43;62.12
45467;BME280;31212;49.734;8.490;2022-10-22T08:00:48;99907.16;;;22.15;59.92
45467;BME280;31212;49.734;8.490;2022-10-22T08:03:16;99902.41;;;22.22;59.25
45467;BME280;31212;49.734;8.490;2022-10-22T08:05:43;99888.16;;;22.74;57.86
45467;BME280;31212;49.734;8.490;2022-10-22T08:08:10;99844.78;;;23.54;56.34
45467;BME280;31212;49.734;8.490;2022-10-22T08:10:37;99802.69;;;23.63;54.80
45467;BME280;31212;49.734;8.490;2022-10-22T08:13:06;99783.94;;;24.24;53.51
45467;BME280;31212;49.734;8.490;2022-10-22T08:15:32;99731.69;;;24.66;51.85
45467;BME280;31212;49.734;8.490;2022-10-22T08:17:59;99729.75;;;24.68;51.55
45467;BME280;31212;49.734;8.490;2022-10-22T08:20:26;99773.50;;;24.63;51.46
45467;BME280;31212;49.734;8.490;2022-10-22T08:22:53;99794.91;;;24.87;51.29
45467;BME280;31212;49.734;8.490;2022-10-22T08:25:19;99759.59;;;25.12;50.27
45467;BME280;31212;49.734;8.490;2022-10-22T08:27:46;99784.22;;;25.01;50.57
45467;BME280;31212;49.734;8.490;2022-10-22T08:30:14;99785.16;;;24.88;50.55
45467;BME280;31212;49.734;8.490;2022-10-22T08:32:41;99724.38;;;25.36;49.09
45467;BME280;31212;49.734;8.490;2022-10-22T08:35:08;99728.84;;;25.85;48.72
45467;BME280;31212;49.734;8.490;2022-10-22T08:37:34;99699.59;;;25.35;48.68
45467;BME280;31212;49.734;8.490;2022-10-22T08:40:01;99657.91;;;25.86;47.30
45467;BME280;31212;49.734;8.490;2022-10-22T08:42:54;99726.13;;;25.61;48.21
45467;BME280;31212;49.734;8.490;2022-10-22T08:45:29;99773.59;;;25.01;49.83
45467;BME280;31212;49.734;8.490;2022-10-22T08:48:09;99721.69;;;25.49;48.31
45467;BME280;31212;49.734;8.490;2022-10-22T08:50:42;99687.09;;;25.99;47.15
45467;BME280;31212;49.734;8.490;2022-10-22T08:53:13;99703.34;;;26.20;47.24
45467;BME280;31212;49.734;8.490;2022-10-22T08:55:40;99692.91;;;25.80;47.28
45467;BME280;31212;49.734;8.490;2022-10-22T08:58:16;99694.56;;;26.31;46.75
45467;BME280;31212;49.734;8.490;2022-10-22T09:00:54;99631.53;;;26.67;45.13
45467;BME280;31212;49.734;8.490;2022-10-22T09:03:35;99636.56;;;26.94;44.75
45467;BME280;31212;49.734;8.490;2022-10-22T09:06:08;99617.69;;;26.50;44.62
45467;BME280;31212;49.734;8.490;2022-10-22T09:08:37;99668.13;;;26.41;45.47
45467;BME280;31212;49.734;8.490;2022-10-22T09:11:12;99696.88;;;27.07;45.26
45467;BME280;31212;49.734;8.490;2022-10-22T09:13:41;99612.84;;;27.02;44.19
45467;BME280;31212;49.734;8.490;2022-10-22T09:16:14;99617.44;;;26.42;44.60
45467;BME280;31212;49.734;8.490;2022-10-22T09:18:48;99596.00;;;26.32;44.05
45467;BME280;31212;49.734;8.490;2022-10-22T09:21:23;99662.03;;;26.03;44.99
45467;BME280;31212;49.734;8.490;2022-10-22T09:23:59;99659.34;;;26.03;45.06
45467;BME280;31212;49.734;8.490;2022-10-22T09:26:31;99683.09;;;25.93;45.35
45467;BME280;31212;49.734;8.490;2022-10-22T09:28:59;99736.94;;;24.94;47.55
45467;BME280;31212;49.734;8.490;2022-10-22T09:31:29;99839.84;;;23.62;50.40
45467;BME280;31212;49.734;8.490;2022-10-22T09:33:56;99925.69;;;22.49;53.24
45467;BME280;31212;49.734;8.490;2022-10-22T09:36:27;100012.34;;;21.37;56.04
45467;BME280;31212;49.734;8.490;2022-10-22T09:38:54;100079.63;;;20.90;57.31
45467;BME280;31212;49.734;8.490;2022-10-22T09:41:24;100130.31;;;20.57;58.60
45467;BME280;31212;49.734;8.490;2022-10-22T09:43:51;100140.47;;;20.66;58.22
45467;BME280;31212;49.734;8.490;2022-10-22T09:46:19;100160.50;;;20.91;58.58
45467;BME280;31212;49.734;8.490;2022-10-22T09:48:55;100162.97;;;20.75;59.01
45467;BME280;31212;49.734;8.490;2022-10-22T09:51:35;100180.13;;;20.63;59.45
45467;BME280;31212;49.734;8.490;2022-10-22T09:54:14;100189.94;;;20.82;59.74
45467;BME280;31212;49.734;8.490;2022-10-22T09:56:41;100148.34;;;21.47;58.13
45467;BME280;31212;49.734;8.490;2022-10-22T09:59:14;100127.16;;;22.22;56.79
45467;BME280;31212;49.734;8.490;2022-10-22T10:01:44;100043.78;;;22.32;55.21
45467;BME280;31212;49.734;8.490;2022-10-22T10:04:15;100043.09;;;21.94;55.70
45467;BME280;31212;49.734;8.490;2022-10-22T10:06:51;100049.06;;;21.80;55.93
45467;BME280;31212;49.734;8.490;2022-10-22T10:09:21;100094.72;;;21.45;56.78
45467;BME280;31212;49.734;8.490;2022-10-22T10:12:00;100139.16;;;21.16;58.03
45467;BME280;31212;49.734;8.490;2022-10-22T10:14:38;100099.19;;;22.36;56.03
45467;BME280;31212;49.734;8.490;2022-10-22T10:17:17;100026.81;;;24.28;52.91
45467;BME280;31212;49.734;8.490;2022-10-22T10:19:56;99848.22;;;25.64;48.32
45467;BME280;31212;49.734;8.490;2022-10-22T10:22:41;99783.63;;;26.62;46.50
45467;BME280;31212;49.734;8.490;2022-10-22T10:25:29;99689.91;;;27.51;44.20
45467;BME280;31212;49.734;8.490;2022-10-22T10:28:13;99642.53;;;28.10;42.51
45467;BME280;31212;49.734;8.490;2022-10-22T10:30:52;99628.44;;;27.75;42.68
45467;BME280;31212;49.734;8.490;2022-10-22T10:33:29;99646.75;;;27.57;43.10
45467;BME280;31212;49.734;8.490;2022-10-22T10:36:05;99649.09;;;28.59;41.74
45467;BME280;31212;49.734;8.490;2022-10-22T10:38:41;99650.75;;;28.93;41.27
45467;BME280;31212;49.734;8.490;2022-10-22T10:41:27;99663.25;;;27.51;42.98
45467;BME280;31212;49.734;8.490;2022-10-22T10:44:23;99742.34;;;26.08;45.28
45467;BME280;31212;49.734;8.490;2022-10-22T10:47:02;99847.97;;;24.74;48.48
45467;BME280;31212;49.734;8.490;2022-10-22T10:49:43;99916.91;;;23.89;50.61
45467;BME280;31212;49.734;8.490;2022-10-22T10:52:20;99960.03;;;22.82;52.20
45467;BME280;31212;49.734;8.490;2022-10-22T10:55:02;100055.22;;;22.50;54.06
45467;BME280;31212;49.734;8.490;2022-10-22T10:57:48;100097.38;;;22.71;54.91
45467;BME280;31212;49.734;8.490;2022-10-22T11:03:35;100082.00;;;22.78;54.64
45467;BME280;31212;49.734;8.490;2022-10-22T11:06:11;100029.69;;;22.49;54.10
45467;BME280;31212;49.734;8.490;2022-10-22T11:08:46;100051.09;;;22.62;54.32
45467;BME280;31212;49.734;8.490;2022-10-22T11:11:22;100055.06;;;23.21;53.57
45467;BME280;31212;49.734;8.490;2022-10-22T11:14:03;100052.03;;;23.27;53.58
45467;BME280;31212;49.734;8.490;2022-10-22T11:16:43;100007.78;;;23.45;52.67
45467;BME280;31212;49.734;8.490;2022-10-22T11:19:19;99948.38;;;23.49;51.87
45467;BME280;31212;49.734;8.490;2022-10-22T11:21:56;100043.50;;;23.54;53.21
45467;BME280;31212;49.734;8.490;2022-10-22T11:24:31;99977.75;;;23.60;52.49
45467;BME280;31212;49.734;8.490;2022-10-22T11:27:09;99984.88;;;22.80;53.39
45467;BME280;31212;49.734;8.490;2022-10-22T11:29:43;99975.13;;;22.64;53.19
45467;BME280;31212;49.734;8.490;2022-10-22T11:32:16;100044.50;;;22.36;54.56
45467;BME280;31212;49.734;8.490;2022-10-22T11:34:47;100076.94;;;22.40;55.18
45467;BME280;31212;49.734;8.490;2022-10-22T11:37:16;100068.84;;;22.43;54.88
45467;BME280;31212;49.734;8.490;2022-10-22T11:39:47;100082.84;;;22.62;54.97
45467;BME280;31212;49.734;8.490;2022-10-22T11:42:18;100079.81;;;22.53;55.16
45467;BME280;31212;49.734;8.490;2022-10-22T11:44:47;100053.19;;;22.56;54.67
45467;BME280;31212;49.734;8.490;2022-10-22T11:47:18;100014.97;;;23.27;53.28
45467;BME280;31212;49.734;8.490;2022-10-22T11:49:54;100007.34;;;23.52;52.93
45467;BME280;31212;49.734;8.490;2022-10-22T11:52:23;100038.09;;;23.55;53.59
45467;BME280;31212;49.734;8.490;2022-10-22T11:54:54;100031.94;;;23.55;53.67
45467;BME280;31212;49.734;8.490;2022-10-22T11:57:26;100029.31;;;23.55;53.48
45467;BME280;31212;49.734;8.490;2022-10-22T11:59:56;100065.78;;;23.97;53.55
45467;BME280;31212;49.734;8.490;2022-10-22T12:02:44;100003.38;;;24.06;52.92
45467;BME280;31212;49.734;8.490;2022-10-22T12:08:01;99988.47;;;23.27;53.25
45467;BME280;31212;49.734;8.490;2022-10-22T12:10:48;100050.66;;;22.37;55.39
45467;BME280;31212;49.734;8.490;2022-10-22T12:13:21;100120.41;;;22.34;56.72
45467;BME280;31212;49.734;8.490;2022-10-22T12:15:52;100117.88;;;22.83;56.16
45467;BME280;31212;49.734;8.490;2022-10-22T12:18:22;100065.34;;;23.09;54.72
45467;BME280;31212;49.734;8.490;2022-10-22T12:20:52;100096.72;;;23.17;55.37
45467;BME280;31212;49.734;8.490;2022-10-22T12:23:25;100047.44;;;23.14;54.74
45467;BME280;31212;49.734;8.490;2022-10-22T12:25:54;100045.56;;;23.32;54.37
45467;BME280;31212;49.734;8.490;2022-10-22T12:28:22;99996.84;;;22.87;54.07
45467;BME280;31212;49.734;8.490;2022-10-22T12:30:49;100025.50;;;22.79;54.44
45467;BME280;31212;49.734;8.490;2022-10-22T12:33:18;100086.59;;;22.92;55.65
45467;BME280;31212;49.734;8.490;2022-10-22T12:35:47;100042.03;;;22.66;55.11
45467;BME280;31212;49.734;8.490;2022-10-22T12:38:20;100039.22;;;22.70;54.87
45467;BME280;31212;49.734;8.490;2022-10-22T12:40:48;100065.59;;;22.71;55.48
45467;BME280;31212;49.734;8.490;2022-10-22T12:43:19;100073.88;;;22.65;55.57
45467;BME280;31212;49.734;8.490;2022-10-22T12:45:49;100065.41;;;22.23;55.83
45467;BME280;31212;49.734;8.490;2022-10-22T12:48:18;100080.56;;;22.20;56.06
45467;BME280;31212;49.734;8.490;2022-10-22T12:50:50;100090.03;;;21.89;56.73
45467;BME280;31212;49.734;8.490;2022-10-22T12:53:21;100116.97;;;22.14;56.80
45467;BME280;31212;49.734;8.490;2022-10-22T12:55:50;100120.16;;;22.21;56.87
45467;BME280;31212;49.734;8.490;2022-10-22T12:58:24;100145.38;;;22.28;57.18
45467;BME280;31212;49.734;8.490;2022-10-22T13:00:54;100153.59;;;22.22;57.42
45467;BME280;31212;49.734;8.490;2022-10-22T13:03:29;100162.09;;;22.29;57.65
45467;BME280;31212;49.734;8.490;2022-10-22T13:06:10;100140.31;;;22.24;57.42
45467;BME280;31212;49.734;8.490;2022-10-22T13:08:38;100156.69;;;22.13;57.75
45467;BME280;31212;49.734;8.490;2022-10-22T13:11:07;100150.41;;;22.15;57.61
45467;BME280;31212;49.734;8.490;2022-10-22T13:13:42;100140.13;;;22.27;57.05
45467;BME280;31212;49.734;8.490;2022-10-22T13:16:18;100152.56;;;22.44;57.20
45467;BME280;31212;49.734;8.490;2022-10-22T13:18:48;100102.69;;;22.54;55.88